Time;durP1;ratioP1;P1;durP2;ratioP2;P2;SDS_P1;SDS_P2;PMS_P1;PMS_P2;Temp;Humidity;BMP_temperature;BMP_pressure;BME280_temperature;BME280_humidity;BME280_pressure;Samples;Min_cycle;Max_cycle;Signal;HPM_P1;HPM_P2
2021/12/10 00:02:13;;;;;;;;;21.75;19.25;;;;;14.27;45.76;97163.75;4832199;28;103933;-65
2021/12/10 00:04:42;;;;;;;;;26.50;24.75;;;;;14.26;45.61;97162.13;4832087;28;102593;-65
2021/12/10 00:07:16;;;;;;;;;27.75;21.75;;;;;14.25;45.59;97159.66;4850884;28;104373;-65
2021/12/10 00:09:47;;;;;;;;;22.75;20.25;;;;;14.24;46.48;97142.50;4830597;28;102804;-65
2021/12/10 00:12:19;;;;;;;;;27.25;23.00;;;;;14.23;46.28;97143.59;4825783;28;102700;-64
2021/12/10 00:14:47;;;;;;;;;26.00;24.50;;;;;14.22;46.25;97143.88;4854022;28;102618;-64
2021/12/10 00:17:15;;;;;;;;;25.50;21.75;;;;;14.19;45.81;97137.03;4823267;28;105584;-64
2021/12/10 00:19:47;;;;;;;;;25.00;22.75;;;;;14.18;46.19;97138.09;4842673;28;102993;-65
2021/12/10 00:22:39;;;;;;;;;22.75;18.25;;;;;14.17;45.95;97136.50;4835223;28;102621;-65
2021/12/10 00:25:18;;;;;;;;;24.00;22.50;;;;;14.14;46.23;97137.00;4836892;28;102622;-64
2021/12/10 00:27:49;;;;;;;;;20.00;20.00;;;;;14.14;45.79;97134.28;4830782;28;110146;-64
2021/12/10 00:30:26;;;;;;;;;25.75;20.75;;;;;14.12;46.11;97133.72;4830184;28;102547;-64
2021/12/10 00:33:11;;;;;;;;;24.75;20.25;;;;;14.11;46.51;97121.22;4855306;28;103148;-64
2021/12/10 00:35:39;;;;;;;;;26.00;22.75;;;;;14.10;45.84;97105.97;4831730;28;103678;-64
2021/12/10 00:38:06;;;;;;;;;27.00;20.00;;;;;14.08;46.61;97108.16;4830363;28;102951;-64
2021/12/10 00:40:34;;;;;;;;;24.75;21.75;;;;;14.08;46.04;97110.88;4858582;28;102826;-65
2021/12/10 00:43:01;;;;;;;;;21.75;20.00;;;;;14.07;46.54;97098.34;4862606;28;103545;-64
2021/12/10 00:45:28;;;;;;;;;26.00;21.00;;;;;14.07;45.97;97106.50;4845323;28;104357;-64
2021/12/10 00:47:55;;;;;;;;;27.50;20.75;;;;;14.07;45.68;97106.50;4841628;28;105858;-64
2021/12/10 00:50:44;;;;;;;;;22.50;19.75;;;;;14.06;46.45;97107.56;4844580;28;103751;-64
2021/12/10 00:53:12;;;;;;;;;22.25;20.00;;;;;14.05;46.33;97105.94;4844416;28;102678;-64
2021/12/10 00:55:39;;;;;;;;;21.50;19.75;;;;;14.04;46.02;97103.50;4843744;28;102863;-64
2021/12/10 00:58:06;;;;;;;;;23.50;21.00;;;;;14.02;46.58;97111.06;4850464;28;104214;-64
2021/12/10 01:00:37;;;;;;;;;23.50;18.50;;;;;13.99;45.87;97101.56;4829007;28;102895;-64
2021/12/10 01:03:06;;;;;;;;;22.50;18.00;;;;;13.98;45.94;97097.19;4850600;28;102796;-64
2021/12/10 01:05:34;;;;;;;;;27.25;20.75;;;;;13.97;45.74;97090.09;4849307;28;102773;-64
2021/12/10 01:08:01;;;;;;;;;21.50;18.50;;;;;13.97;46.10;97108.31;4815395;28;103268;-64
2021/12/10 01:10:53;;;;;;;;;21.25;18.00;;;;;13.95;45.86;97105.88;4847170;28;102832;-65
2021/12/10 01:13:26;;;;;;;;;21.50;20.25;;;;;13.95;46.10;97110.47;4852751;28;102654;-65
2021/12/10 01:16:16;;;;;;;;;19.25;17.50;;;;;13.93;46.23;97096.31;4852214;28;102978;-64
2021/12/10 01:24:38;;;;;;;;;20.50;16.00;;;;;13.91;46.13;97106.66;4836298;28;102788;-64
2021/12/10 01:27:13;;;;;;;;;23.50;21.00;;;;;13.90;46.63;97107.72;4844897;28;102593;-64
2021/12/10 01:29:43;;;;;;;;;20.50;17.50;;;;;13.89;45.83;97095.19;4832454;28;110498;-64
2021/12/10 01:32:13;;;;;;;;;22.25;18.75;;;;;13.86;45.68;97096.56;4819427;28;102467;-64
2021/12/10 01:34:40;;;;;;;;;23.50;20.50;;;;;13.85;46.53;97081.31;4812315;28;103067;-64
2021/12/10 01:37:07;;;;;;;;;20.00;16.75;;;;;13.83;46.10;97087.00;4847512;28;105041;-64
2021/12/10 01:39:37;;;;;;;;;20.50;20.00;;;;;13.83;45.74;97091.63;4840569;28;108882;-64
2021/12/10 01:45:07;;;;;;;;;21.25;19.25;;;;;13.81;46.22;97093.78;4821412;28;104044;-64
2021/12/10 01:47:35;;;;;;;;;22.00;18.00;;;;;13.82;45.76;97087.28;4833664;28;102532;-64
2021/12/10 01:50:05;;;;;;;;;19.25;16.75;;;;;13.81;45.79;97093.78;4854520;28;111818;-64
2021/12/10 01:52:32;;;;;;;;;19.00;17.75;;;;;13.80;45.74;97098.41;4847881;28;102765;-64
2021/12/10 01:55:00;;;;;;;;;21.75;17.75;;;;;13.78;46.13;97089.66;4823812;28;103839;-64
2021/12/10 01:57:29;;;;;;;;;19.50;18.50;;;;;13.78;46.21;97099.72;4853440;28;102198;-64
2021/12/10 01:59:57;;;;;;;;;18.75;16.75;;;;;13.77;46.02;97098.09;4842607;28;104123;-64
2021/12/10 02:02:27;;;;;;;;;23.25;18.00;;;;;13.75;46.47;97086.66;4811666;28;105222;-64
2021/12/10 02:04:55;;;;;;;;;25.00;18.00;;;;;13.74;45.66;97085.00;4814905;28;105057;-64
2021/12/10 02:07:24;;;;;;;;;19.00;16.00;;;;;13.73;45.78;97088.81;4838806;28;102246;-63
2021/12/10 02:09:51;;;;;;;;;25.25;18.25;;;;;13.73;45.68;97094.25;4818787;28;105472;-64
2021/12/10 02:12:19;;;;;;;;;19.75;16.75;;;;;13.72;45.98;97100.75;4825263;28;103014;-64
2021/12/10 02:14:58;;;;;;;;;17.00;15.75;;;;;13.70;46.57;97087.44;4840702;28;102562;-64
2021/12/10 02:17:27;;;;;;;;;22.75;17.75;;;;;13.71;46.50;97088.25;4838923;28;102726;-64
2021/12/10 02:19:54;;;;;;;;;21.75;20.50;;;;;13.69;46.39;97088.50;4813601;28;104313;-64
2021/12/10 02:22:22;;;;;;;;;22.25;19.75;;;;;13.68;45.78;97089.59;4830979;28;102799;-64
2021/12/10 02:24:50;;;;;;;;;20.00;19.25;;;;;13.67;45.97;97090.66;4820827;28;103285;-64
2021/12/10 02:27:17;;;;;;;;;22.75;18.75;;;;;13.67;45.96;97082.53;4830498;28;102740;-64
2021/12/10 02:29:45;;;;;;;;;24.75;20.50;;;;;13.66;46.21;97088.19;4841452;28;103561;-64
2021/12/10 02:32:12;;;;;;;;;21.50;16.00;;;;;13.64;46.56;97085.75;4831406;28;102672;-64
2021/12/10 02:34:41;;;;;;;;;20.75;19.00;;;;;13.64;45.79;97077.63;4832729;28;102688;-64
2021/12/10 02:37:08;;;;;;;;;20.50;18.25;;;;;13.62;45.94;97068.91;4847492;28;103491;-64
2021/12/10 02:39:35;;;;;;;;;21.50;18.50;;;;;13.62;46.04;97062.63;4835590;28;105934;-64
2021/12/10 02:42:03;;;;;;;;;22.50;20.75;;;;;13.62;46.37;97074.31;4843101;28;103535;-64
2021/12/10 02:44:31;;;;;;;;;18.75;16.50;;;;;13.61;45.87;97085.44;4847977;28;102504;-64
2021/12/10 02:46:58;;;;;;;;;22.25;17.00;;;;;13.61;45.82;97074.56;4826661;28;102890;-64
2021/12/10 02:49:26;;;;;;;;;20.75;18.25;;;;;13.60;45.82;97059.38;4828836;28;104112;-64
2021/12/10 02:51:53;;;;;;;;;18.00;14.25;;;;;13.59;46.45;97053.13;4829377;28;102777;-64
2021/12/10 02:54:31;;;;;;;;;19.75;16.25;;;;;13.60;46.44;97060.16;4841110;28;102545;-64
2021/12/10 02:57:03;;;;;;;;;17.75;17.00;;;;;13.60;45.93;97053.94;4848816;28;102603;-64
2021/12/10 02:59:30;;;;;;;;;21.25;17.25;;;;;13.58;46.32;97053.38;4852228;28;104966;-64
2021/12/10 03:01:59;;;;;;;;;24.00;19.00;;;;;13.55;46.45;97060.16;4840044;28;102490;-64
2021/12/10 03:04:27;;;;;;;;;22.25;18.25;;;;;13.54;45.94;97046.81;4831558;28;102503;-64
2021/12/10 03:06:56;;;;;;;;;18.25;16.00;;;;;13.53;46.23;97042.47;4857259;28;102860;-64
2021/12/10 03:09:24;;;;;;;;;20.00;17.25;;;;;13.55;45.46;97041.13;4835122;28;104002;-64
2021/12/10 03:11:52;;;;;;;;;17.75;15.75;;;;;13.57;45.40;97046.28;4830410;28;103583;-64
2021/12/10 03:14:21;;;;;;;;;18.50;15.25;;;;;13.59;46.38;97047.69;4857728;28;102752;-64
2021/12/10 03:16:50;;;;;;;;;20.00;17.75;;;;;13.61;45.73;97052.84;4849459;28;102323;-64
2021/12/10 03:19:17;;;;;;;;;16.00;13.50;;;;;13.63;45.34;97034.41;4847147;28;106312;-64
2021/12/10 03:21:45;;;;;;;;;22.50;18.00;;;;;13.65;45.88;97040.38;4832492;28;103517;-64
2021/12/10 03:24:13;;;;;;;;;18.50;16.50;;;;;13.67;46.03;97043.69;4831162;28;105766;-64
2021/12/10 03:26:41;;;;;;;;;22.00;17.25;;;;;13.68;45.83;97039.88;4852408;28;104016;-64
2021/12/10 03:29:08;;;;;;;;;20.50;16.75;;;;;13.70;46.00;97026.84;4835211;28;109261;-64
2021/12/10 03:31:35;;;;;;;;;19.50;16.75;;;;;13.70;46.10;97026.84;4815638;28;102641;-64
2021/12/10 03:34:03;;;;;;;;;16.25;14.25;;;;;13.73;45.77;97026.34;4856221;28;103147;-64
2021/12/10 03:36:30;;;;;;;;;17.50;16.00;;;;;13.76;45.29;97031.25;4853470;28;102357;-64
2021/12/10 03:38:57;;;;;;;;;17.75;15.00;;;;;13.75;45.78;97032.31;4830323;28;105460;-64
2021/12/10 03:41:27;;;;;;;;;18.00;15.50;;;;;13.76;46.11;97025.81;4830633;28;102273;-64
2021/12/10 03:43:54;;;;;;;;;20.75;15.75;;;;;13.78;45.43;97035.34;4820913;28;103793;-64
2021/12/10 03:46:22;;;;;;;;;16.50;15.75;;;;;13.78;46.09;97045.38;4824392;28;104516;-64
2021/12/10 03:48:49;;;;;;;;;16.50;15.50;;;;;13.79;45.45;97045.13;4842198;28;105331;-64
2021/12/10 03:51:19;;;;;;;;;20.00;17.00;;;;;13.80;45.53;97038.63;4846329;28;102673;-64
2021/12/10 03:53:46;;;;;;;;;21.25;16.75;;;;;13.80;45.56;97046.78;4829684;28;107401;-64
2021/12/10 03:56:16;;;;;;;;;22.25;16.75;;;;;13.81;45.22;97055.75;4826101;28;103056;-64
2021/12/10 03:58:43;;;;;;;;;19.75;18.50;;;;;13.82;46.14;97057.41;4849986;28;104087;-64
2021/12/10 04:01:11;;;;;;;;;16.25;16.25;;;;;13.82;45.30;97049.25;4831485;28;102609;-64
2021/12/10 04:03:40;;;;;;;;;18.75;16.25;;;;;13.83;45.87;97048.13;4831541;28;106157;-64
2021/12/10 04:06:07;;;;;;;;;18.25;15.75;;;;;13.83;45.35;97048.13;4864944;28;102709;-64
2021/12/10 04:08:34;;;;;;;;;15.25;12.75;;;;;13.83;45.46;97045.44;4828194;28;106112;-64
2021/12/10 04:11:03;;;;;;;;;18.00;15.75;;;;;13.83;45.06;97048.13;4832573;28;103548;-64
2021/12/10 04:13:30;;;;;;;;;22.00;17.00;;;;;13.83;45.41;97048.97;4842615;28;103041;-64
2021/12/10 04:15:57;;;;;;;;;19.75;17.00;;;;;13.83;45.19;97053.56;4832635;28;102710;-65
2021/12/10 04:18:24;;;;;;;;;24.25;17.75;;;;;13.84;45.23;97055.22;4834246;28;105571;-64
2021/12/10 04:20:51;;;;;;;;;16.75;14.25;;;;;13.84;45.96;97045.19;4853523;28;102557;-64
2021/12/10 04:23:19;;;;;;;;;19.50;15.75;;;;;13.83;45.63;97050.84;4845886;28;104325;-64
2021/12/10 04:25:46;;;;;;;;;19.75;16.50;;;;;13.84;45.43;97049.78;4843666;28;102702;-64
2021/12/10 04:28:16;;;;;;;;;21.25;17.25;;;;;13.83;45.02;97056.28;4853434;28;104312;-64
2021/12/10 04:30:45;;;;;;;;;23.00;20.00;;;;;13.83;45.16;97059.00;4846424;28;102928;-64
2021/12/10 04:33:15;;;;;;;;;18.75;14.25;;;;;13.82;45.86;97068.25;4864432;28;102464;-64
2021/12/10 04:35:44;;;;;;;;;18.75;17.00;;;;;13.81;45.53;97072.88;4846722;28;103994;-64
2021/12/10 04:38:11;;;;;;;;;23.50;17.00;;;;;13.81;45.51;97080.19;4855536;28;104098;-64
2021/12/10 04:40:39;;;;;;;;;15.75;14.00;;;;;13.81;45.57;97077.47;4843254;28;102653;-64
2021/12/10 04:43:06;;;;;;;;;18.25;16.25;;;;;13.79;45.55;97074.19;4854632;28;102171;-64
2021/12/10 04:45:34;;;;;;;;;20.75;19.00;;;;;13.79;45.46;97080.44;4843176;28;104106;-64
2021/12/10 04:48:01;;;;;;;;;18.25;15.25;;;;;13.78;45.20;97072.53;4856212;28;104297;-64
2021/12/10 04:50:29;;;;;;;;;18.75;16.00;;;;;13.78;45.23;97076.09;4866492;28;102644;-64
2021/12/10 04:52:57;;;;;;;;;19.00;18.00;;;;;13.77;45.38;97076.38;4856777;28;102619;-64
2021/12/10 04:55:24;;;;;;;;;17.75;17.00;;;;;13.76;45.60;97080.97;4851482;28;104535;-64
2021/12/10 04:57:51;;;;;;;;;20.00;17.50;;;;;13.75;44.98;97064.94;4867509;28;104006;-64
2021/12/10 05:00:26;;;;;;;;;17.00;16.00;;;;;13.75;45.38;97070.34;4835615;28;103365;-64
2021/12/10 05:02:54;;;;;;;;;20.75;19.50;;;;;13.71;45.75;97075.50;4833664;28;102798;-64
2021/12/10 05:05:21;;;;;;;;;20.00;17.00;;;;;13.70;45.08;97082.00;4842497;28;102624;-64
2021/12/10 05:07:49;;;;;;;;;16.00;13.00;;;;;13.69;45.06;97076.81;4850620;28;105796;-64
2021/12/10 05:10:19;;;;;;;;;19.25;16.75;;;;;13.68;45.12;97072.47;4851444;28;102612;-64
2021/12/10 05:12:46;;;;;;;;;22.00;18.25;;;;;13.68;45.17;97067.88;4832311;28;103498;-64
2021/12/10 05:15:17;;;;;;;;;20.25;17.50;;;;;13.67;45.28;97062.69;4856543;28;103762;-64
2021/12/10 05:17:44;;;;;;;;;20.25;16.00;;;;;13.66;45.50;97070.00;4842408;28;107443;-64
2021/12/10 05:20:15;;;;;;;;;16.75;15.00;;;;;13.66;46.08;97064.56;4856825;28;102769;-64
2021/12/10 05:22:45;;;;;;;;;22.00;16.75;;;;;13.67;45.38;97070.84;4845675;28;103612;-64
2021/12/10 05:25:13;;;;;;;;;20.75;16.50;;;;;13.66;45.99;97070.00;4822616;28;104558;-64
2021/12/10 05:27:41;;;;;;;;;21.25;18.75;;;;;13.64;45.63;97061.31;4860160;28;107936;-64
2021/12/10 05:30:10;;;;;;;;;19.50;16.00;;;;;13.65;45.11;97072.97;4855450;28;103050;-64
2021/12/10 05:32:37;;;;;;;;;18.50;15.75;;;;;13.64;45.66;97071.34;4854401;28;102573;-64
2021/12/10 05:35:05;;;;;;;;;24.00;16.25;;;;;13.63;45.14;97067.00;4850491;28;102634;-64
2021/12/10 05:37:33;;;;;;;;;23.75;17.00;;;;;13.61;45.81;97064.53;4862097;28;104613;-64
2021/12/10 05:40:00;;;;;;;;;21.75;16.25;;;;;13.61;45.10;97063.72;4836200;28;103537;-64
2021/12/10 05:42:27;;;;;;;;;21.50;17.75;;;;;13.60;44.97;97053.94;4850228;28;103772;-64
2021/12/10 05:44:54;;;;;;;;;20.50;15.25;;;;;13.60;45.99;97054.75;4859509;28;103769;-64
2021/12/10 05:47:21;;;;;;;;;18.25;16.00;;;;;13.58;46.01;97059.63;4854899;28;104039;-64
2021/12/10 05:49:49;;;;;;;;;21.50;20.25;;;;;13.58;45.21;97056.91;4852185;28;102701;-64
2021/12/10 05:52:16;;;;;;;;;16.75;15.00;;;;;13.58;45.19;97056.09;4824170;28;102676;-64
2021/12/10 05:55:02;;;;;;;;;19.25;16.00;;;;;13.59;45.46;97058.56;4838587;28;102385;-64
2021/12/10 05:57:29;;;;;;;;;20.00;16.25;;;;;13.59;45.58;97064.00;4830745;28;109005;-64
2021/12/10 05:59:56;;;;;;;;;18.75;16.75;;;;;13.57;45.78;97054.44;4841325;28;102823;-64
2021/12/10 06:02:23;;;;;;;;;21.75;19.50;;;;;13.57;44.85;97055.25;4855964;28;102531;-64
2021/12/10 06:04:50;;;;;;;;;17.00;15.50;;;;;13.55;45.79;97054.72;4844357;28;102367;-65
2021/12/10 06:07:18;;;;;;;;;17.50;15.00;;;;;13.55;45.17;97045.75;4840088;28;104480;-64
2021/12/10 06:09:45;;;;;;;;;18.00;14.00;;;;;13.52;45.25;97051.69;4821106;28;102739;-64
2021/12/10 06:12:12;;;;;;;;;22.25;17.25;;;;;13.49;45.51;97046.78;4852081;28;102276;-64
2021/12/10 06:14:40;;;;;;;;;22.00;18.50;;;;;13.48;45.28;97048.66;4854065;28;102396;-64
2021/12/10 06:17:07;;;;;;;;;17.75;16.00;;;;;13.47;44.97;97046.19;4860271;28;104440;-64
2021/12/10 06:19:34;;;;;;;;;21.50;18.25;;;;;13.47;44.97;97048.91;4838759;28;102743;-64
2021/12/10 06:22:02;;;;;;;;;13.75;12.25;;;;;13.45;45.91;97056.50;4849592;28;107030;-64
2021/12/10 06:24:30;;;;;;;;;26.25;21.00;;;;;13.45;45.05;97056.50;4856697;28;102208;-64
2021/12/10 06:26:57;;;;;;;;;14.50;14.00;;;;;13.44;45.67;97060.28;4846451;28;103039;-64
2021/12/10 06:29:25;;;;;;;;;21.00;19.50;;;;;13.45;45.92;97068.19;4867683;28;102970;-64
2021/12/10 06:31:53;;;;;;;;;19.25;16.00;;;;;13.43;45.16;97066.78;4851705;28;102683;-64
2021/12/10 06:34:20;;;;;;;;;17.00;15.00;;;;;13.42;45.58;97065.97;4834790;28;103220;-64
2021/12/10 06:36:50;;;;;;;;;16.50;15.25;;;;;13.40;45.73;97066.25;4838796;28;106028;-64
2021/12/10 06:39:21;;;;;;;;;20.75;18.75;;;;;13.39;45.34;97056.47;4825323;28;102702;-64
2021/12/10 06:41:52;;;;;;;;;21.75;18.00;;;;;13.38;45.05;97060.25;4841420;28;102663;-64
2021/12/10 06:44:20;;;;;;;;;21.25;16.75;;;;;13.36;45.02;97065.13;4852329;28;102578;-64
2021/12/10 06:46:47;;;;;;;;;26.00;17.50;;;;;13.37;45.68;97071.38;4840744;28;102935;-64
2021/12/10 06:49:14;;;;;;;;;20.25;16.50;;;;;13.35;45.04;97077.06;4853829;28;104537;-64
2021/12/10 06:51:41;;;;;;;;;22.25;17.50;;;;;13.36;45.23;97086.00;4879511;28;103704;-64
2021/12/10 06:54:08;;;;;;;;;21.75;20.25;;;;;13.36;45.55;97092.28;4822956;28;102530;-64
2021/12/10 06:56:36;;;;;;;;;21.75;16.00;;;;;13.35;45.76;97095.22;4856604;28;104970;-64
2021/12/10 06:59:04;;;;;;;;;15.50;14.75;;;;;13.37;45.56;97098.53;4836079;28;103742;-64
2021/12/10 07:01:34;;;;;;;;;21.50;17.25;;;;;13.35;45.03;97095.22;4864365;28;102521;-64
2021/12/10 07:04:02;;;;;;;;;18.50;15.00;;;;;13.36;45.54;97105.84;4860030;28;102936;-64
2021/12/10 07:06:29;;;;;;;;;19.75;17.25;;;;;13.36;45.73;97114.00;4862426;28;105786;-63
2021/12/10 07:08:57;;;;;;;;;23.00;16.00;;;;;13.36;45.81;97116.69;4872631;28;101914;-64
2021/12/10 07:11:24;;;;;;;;;20.50;15.75;;;;;13.35;45.07;97116.94;4874673;28;102301;-64
2021/12/10 07:13:55;;;;;;;;;21.25;17.00;;;;;13.31;45.51;97105.78;4862921;28;102197;-64
2021/12/10 07:16:23;;;;;;;;;15.25;11.75;;;;;13.30;44.99;97111.47;4860567;28;104051;-64
2021/12/10 07:18:51;;;;;;;;;18.25;15.00;;;;;13.28;46.05;97109.00;4843843;28;103491;-64
2021/12/10 07:21:18;;;;;;;;;18.00;16.25;;;;;13.29;45.72;97107.09;4849783;28;102554;-64
2021/12/10 07:23:45;;;;;;;;;21.00;16.00;;;;;13.28;45.76;97100.84;4848055;28;102501;-64
2021/12/10 07:26:13;;;;;;;;;24.25;16.00;;;;;13.27;45.63;97101.94;4880753;28;103736;-64
2021/12/10 07:28:40;;;;;;;;;19.75;16.00;;;;;13.28;45.52;97102.75;4842674;28;103276;-64
2021/12/10 07:31:08;;;;;;;;;19.00;13.75;;;;;13.26;45.94;97103.00;4842834;28;102522;-64
2021/12/10 07:33:35;;;;;;;;;19.75;16.75;;;;;13.25;45.82;97093.22;4842139;28;104616;-64
2021/12/10 07:36:04;;;;;;;;;24.50;19.50;;;;;13.27;46.30;97088.38;4850602;28;103700;-64
2021/12/10 07:38:31;;;;;;;;;20.25;18.00;;;;;13.26;46.26;97094.03;4855478;28;102417;-64
2021/12/10 07:40:58;;;;;;;;;21.50;16.00;;;;;13.26;45.86;97100.28;4839310;28;102606;-64
2021/12/10 07:43:25;;;;;;;;;22.25;17.25;;;;;13.24;45.50;97098.91;4840445;28;102637;-64
2021/12/10 07:45:53;;;;;;;;;17.75;15.50;;;;;13.25;45.77;97095.94;4849422;28;105808;-64
2021/12/10 07:48:22;;;;;;;;;21.75;16.00;;;;;13.26;45.82;97089.44;4854325;28;102569;-64
2021/12/10 07:50:57;;;;;;;;;18.25;16.00;;;;;13.27;45.18;97092.97;4840762;28;102348;-64
2021/12/10 07:53:29;;;;;;;;;18.50;15.00;;;;;13.26;45.78;97091.31;4843048;28;103852;-64
2021/12/10 07:56:00;;;;;;;;;19.00;18.00;;;;;13.25;46.19;97090.50;4845045;28;102881;-64
2021/12/10 07:58:28;;;;;;;;;18.50;14.50;;;;;13.24;45.88;97080.72;4865157;28;102237;-64
2021/12/10 08:00:56;;;;;;;;;17.75;14.75;;;;;13.25;45.92;97095.09;4840221;28;102283;-64
2021/12/10 08:03:23;;;;;;;;;18.25;16.25;;;;;13.23;45.91;97089.97;4869771;28;102790;-64
2021/12/10 08:05:50;;;;;;;;;20.25;16.25;;;;;13.24;45.94;97088.84;4863162;28;104069;-64
2021/12/10 08:08:17;;;;;;;;;19.50;17.75;;;;;13.20;45.87;97092.34;4873742;28;102680;-64
2021/12/10 08:10:48;;;;;;;;;17.00;16.00;;;;;13.24;45.37;97088.84;4844465;28;102695;-64
2021/12/10 08:13:16;;;;;;;;;15.25;13.25;;;;;13.23;46.09;97098.09;4870166;28;103098;-64
2021/12/10 08:15:44;;;;;;;;;16.00;15.50;;;;;13.22;46.30;97101.88;4837059;28;107725;-64
2021/12/10 08:18:11;;;;;;;;;24.50;16.00;;;;;13.23;46.18;97102.72;4852029;28;104119;-64
2021/12/10 08:20:38;;;;;;;;;16.00;15.50;;;;;13.20;46.27;97098.59;4839581;28;102767;-64
2021/12/10 08:23:05;;;;;;;;;17.25;15.25;;;;;13.21;45.34;97102.13;4860070;28;102866;-64
2021/12/10 08:25:33;;;;;;;;;19.50;15.00;;;;;13.20;45.17;97103.19;4834949;28;104101;-64
2021/12/10 08:28:00;;;;;;;;;21.75;17.75;;;;;13.21;45.37;97108.38;4835919;28;102207;-64
2021/12/10 08:30:27;;;;;;;;;19.75;15.00;;;;;13.22;45.50;97110.03;4858908;28;102564;-64
2021/12/10 08:32:55;;;;;;;;;22.75;16.50;;;;;13.23;45.30;97121.72;4841464;28;102514;-64
2021/12/10 08:35:26;;;;;;;;;19.50;16.00;;;;;13.23;45.25;97116.28;4851237;28;104768;-64
2021/12/10 08:37:53;;;;;;;;;17.75;16.00;;;;;13.22;45.55;97112.75;4840278;28;103117;-64
2021/12/10 08:40:22;;;;;;;;;18.00;15.25;;;;;13.23;45.73;97113.56;4831763;28;103071;-64
2021/12/10 08:42:50;;;;;;;;;21.25;16.50;;;;;13.22;45.02;97112.75;4841336;28;102542;-64
2021/12/10 08:45:19;;;;;;;;;23.25;17.00;;;;;13.22;45.51;97107.31;4861707;28;103644;-64
2021/12/10 08:47:47;;;;;;;;;19.00;16.00;;;;;13.22;45.05;97107.31;4840066;28;102584;-64
2021/12/10 08:50:17;;;;;;;;;22.00;17.00;;;;;13.22;45.56;97110.03;4819361;28;102901;-64
2021/12/10 08:52:44;;;;;;;;;20.25;15.75;;;;;13.21;45.01;97105.66;4856955;28;102754;-64
2021/12/10 08:55:11;;;;;;;;;20.75;16.75;;;;;13.23;45.41;97113.56;4852226;28;104371;-64
2021/12/10 08:57:39;;;;;;;;;19.50;19.00;;;;;13.23;46.04;97119.00;4852706;28;102638;-64
2021/12/10 09:00:07;;;;;;;;;20.50;16.00;;;;;13.23;45.25;97108.13;4852383;28;103718;-64
2021/12/10 09:02:36;;;;;;;;;20.50;16.00;;;;;13.21;45.14;97102.13;4858735;28;102664;-64
2021/12/10 09:05:04;;;;;;;;;21.50;20.00;;;;;13.21;45.46;97102.94;4862743;28;103380;-64
2021/12/10 09:07:31;;;;;;;;;14.00;11.00;;;;;13.21;45.11;97102.94;4858573;28;103689;-64
2021/12/10 09:09:58;;;;;;;;;18.50;16.25;;;;;13.21;45.71;97102.13;4860754;28;102561;-64
2021/12/10 09:12:26;;;;;;;;;21.25;17.00;;;;;13.21;44.92;97105.66;4860155;28;103584;-64
2021/12/10 09:14:55;;;;;;;;;18.00;16.00;;;;;13.20;45.04;97104.00;4868505;28;104343;-64
2021/12/10 09:17:25;;;;;;;;;19.00;16.50;;;;;13.21;45.69;97111.09;4859750;28;102369;-64
2021/12/10 09:19:56;;;;;;;;;17.50;16.50;;;;;13.21;45.48;97104.84;4842849;28;103110;-64
2021/12/10 09:22:23;;;;;;;;;18.00;15.50;;;;;13.22;44.82;97107.31;4865991;28;103165;-64
2021/12/10 09:24:54;;;;;;;;;17.00;13.75;;;;;13.21;45.76;97094.81;4878541;28;105847;-63
2021/12/10 09:27:21;;;;;;;;;20.25;18.00;;;;;13.21;45.10;97097.53;4843111;28;103766;-64
2021/12/10 09:29:49;;;;;;;;;20.00;18.50;;;;;13.21;45.67;97105.66;4868270;28;102739;-64
2021/12/10 09:32:20;;;;;;;;;20.00;17.75;;;;;13.22;45.55;97101.88;4864955;28;102696;-64
2021/12/10 09:34:47;;;;;;;;;23.00;21.00;;;;;13.23;45.55;97098.09;4839318;28;109905;-64
2021/12/10 09:37:15;;;;;;;;;20.00;15.00;;;;;13.22;45.56;97091.03;4861094;28;102343;-64
2021/12/10 09:39:43;;;;;;;;;22.50;20.25;;;;;13.23;45.16;97081.00;4829909;28;102508;-64
2021/12/10 09:42:11;;;;;;;;;23.75;20.50;;;;;13.23;45.75;97092.66;4855831;28;102751;-64
2021/12/10 09:44:38;;;;;;;;;16.00;15.00;;;;;13.22;45.52;97085.59;4860364;28;103206;-64
2021/12/10 09:47:07;;;;;;;;;23.50;18.50;;;;;13.21;45.62;97078.53;4866465;28;102300;-64
2021/12/10 09:49:35;;;;;;;;;17.50;16.25;;;;;13.22;45.42;97082.88;4839172;28;102272;-64
2021/12/10 09:52:05;;;;;;;;;19.50;15.75;;;;;13.23;45.40;97079.09;4835549;28;102681;-64
2021/12/10 09:54:32;;;;;;;;;18.50;16.50;;;;;13.23;45.35;97072.84;4842642;28;104801;-64
2021/12/10 09:57:11;;;;;;;;;25.00;18.25;;;;;13.23;45.08;97081.81;4865188;28;107450;-63
2021/12/10 09:59:40;;;;;;;;;21.00;19.25;;;;;13.23;45.91;97075.56;4857220;28;103031;-64
2021/12/10 10:02:11;;;;;;;;;22.50;19.25;;;;;13.21;46.01;97066.84;4866980;28;102402;-64
2021/12/10 10:04:40;;;;;;;;;23.50;19.00;;;;;13.22;45.99;97063.88;4841387;28;104105;-64
2021/12/10 10:07:10;;;;;;;;;22.00;16.00;;;;;13.21;44.79;97059.53;4835463;28;102365;-64
2021/12/10 10:09:38;;;;;;;;;20.25;15.25;;;;;13.21;44.86;97051.38;4851782;28;103509;-64
2021/12/10 10:12:09;;;;;;;;;19.25;16.00;;;;;13.22;45.59;97060.34;4860914;28;102852;-64
2021/12/10 10:14:38;;;;;;;;;22.25;19.25;;;;;13.21;45.72;97056.81;4835939;28;104138;-64
2021/12/10 10:17:06;;;;;;;;;20.50;19.00;;;;;13.21;45.79;97056.81;4865941;28;102739;-64
2021/12/10 10:19:34;;;;;;;;;19.50;19.00;;;;;13.19;45.50;97048.09;4866001;28;102776;-64
2021/12/10 10:22:03;;;;;;;;;22.00;19.50;;;;;13.21;44.92;97051.38;4861145;28;102494;-63
2021/12/10 10:24:33;;;;;;;;;16.00;15.75;;;;;13.21;45.43;97045.94;4835477;28;105662;-64
2021/12/10 10:27:28;;;;;;;;;24.25;19.25;;;;;13.21;45.89;97037.81;4872342;28;102627;-64
2021/12/10 10:29:58;;;;;;;;;20.75;18.75;;;;;13.23;44.89;97043.81;4857319;28;102807;-63
2021/12/10 10:32:27;;;;;;;;;21.00;17.50;;;;;13.24;45.36;97039.19;4846329;28;102546;-64
2021/12/10 10:34:58;;;;;;;;;19.00;17.00;;;;;13.24;44.94;97044.59;4855005;28;105546;-64
2021/12/10 10:37:25;;;;;;;;;26.00;22.75;;;;;13.23;45.09;97049.25;4866617;28;102365;-63
2021/12/10 10:39:52;;;;;;;;;17.75;15.25;;;;;13.24;45.15;97045.44;4851136;28;102531;-64
2021/12/10 10:42:24;;;;;;;;;17.00;16.50;;;;;13.25;45.65;97046.25;4864786;28;102700;-64
2021/12/10 10:44:57;;;;;;;;;19.00;17.50;;;;;13.22;44.81;97047.59;4847213;28;104155;-64
2021/12/10 10:47:24;;;;;;;;;20.00;17.00;;;;;13.24;44.73;97050.84;4840962;28;103927;-63
2021/12/10 10:49:54;;;;;;;;;17.25;16.25;;;;;13.24;44.84;97050.84;4858093;28;102847;-64
2021/12/10 10:52:33;;;;;;;;;19.00;16.50;;;;;13.24;45.21;97048.16;4881822;28;102626;-63
2021/12/10 10:55:15;;;;;;;;;19.00;16.25;;;;;13.21;44.77;97040.53;4856788;28;104052;-64
2021/12/10 10:57:49;;;;;;;;;21.25;17.25;;;;;13.23;44.75;97053.84;4836565;28;102811;-64
2021/12/10 11:00:32;;;;;;;;;16.75;16.00;;;;;13.21;44.96;97050.56;4859560;28;102489;-64
2021/12/10 11:03:09;;;;;;;;;23.50;16.25;;;;;13.20;44.95;97049.72;4849585;28;102627;-63
2021/12/10 11:05:47;;;;;;;;;27.00;19.00;;;;;13.18;44.63;97046.47;4823356;28;104463;-64
2021/12/10 11:08:24;;;;;;;;;14.75;14.50;;;;;13.16;44.96;97048.59;4844996;28;102447;-63
2021/12/10 11:10:51;;;;;;;;;20.00;16.25;;;;;13.15;45.03;97049.69;4834404;28;102533;-64
2021/12/10 11:13:21;;;;;;;;;21.00;15.00;;;;;13.17;45.07;97054.84;4863959;28;105810;-64
2021/12/10 11:16:02;;;;;;;;;21.75;16.75;;;;;13.18;44.65;97051.06;4856241;28;104154;-64
2021/12/10 11:18:43;;;;;;;;;25.25;19.50;;;;;13.18;44.74;97051.06;4866823;28;108712;-64
2021/12/10 11:21:11;;;;;;;;;22.25;20.50;;;;;13.18;45.40;97056.50;4860898;28;102742;-64
2021/12/10 11:23:39;;;;;;;;;16.50;13.25;;;;;13.18;44.65;97051.91;4849932;28;103544;-64
2021/12/10 11:26:07;;;;;;;;;20.00;15.75;;;;;13.20;45.62;97057.06;4828275;28;103476;-64
2021/12/10 11:28:37;;;;;;;;;17.50;16.75;;;;;13.22;45.36;97058.47;4850565;28;102861;-63